Terminal Aerodrome Forecast
Issued by NWS Atlanta, GA

Home | Current Version | Previous Version | Text Only | Print | Product List | Glossary On
Versions: 1 2 3 4 5 6 7 8 9 10 11 12 13 14 15 16 17 18 19 20 21 22 23 24
000
FTUS42 KFFC 282133 AAB
TAFCSG
TAF AMD
KCSG 282133Z 2822/2918 25011KT P6SM SCT045
     FM290200 26003KT P6SM SCT250
     FM291000 00000KT 3SM BR FEW250
     FM291300 00000KT P6SM FEW250
     FM291600 VRB03KT P6SM SCT050=

USA.gov is the U.S. government's official web portal to all federal, state and local government web resources and services.